KDRA/DRA METAR and TAF weather

Enter ICAO airport designator
Station Type Date Time Source
KDRA METAR 2020/10/22 02:53 UTC NOAA

KDRA 220253Z AUTO 11004KT 10SM CLR 19/M10 A2983 RMK AO2 SLP073 T01891100 53001


Station Type Date Time Source
KDRA Decoded METAR 2020/10/22 02:53 UTC NOAA

DESERT ROCK AIRPORT, NV, United States (KDRA) 36-38N 116-02W 1006M
Oct 21, 2020 - 10:53 PM EDT / 2020.10.22 0253 UTC
Wind: from the ESE (110 degrees) at 5 MPH (4 KT):0
Visibility: 10 mile(s):0
Sky conditions: clear
Temperature: 66.0 F (18.9 C)
Dew Point: 14.0 F (-10.0 C)
Relative Humidity: 13%
Pressure (altimeter): 29.83 in. Hg (1010 hPa)
Pressure tendency: 0.00 inches (0.1 hPa) higher than three hours ago
ob: KDRA 220253Z AUTO 11004KT 10SM CLR 19/M10 A2983 RMK AO2 SLP073 T01891100 53001
cycle: 3

Station Type Date Time Source
KDRA TAF 2011/12/07 06:36 UTC NOAA

TAF KDRA 070532Z 0706/0806 VRB04KT P6SM SKC

Example: see airport list